AEE632 LGAV-EGPH
Flight info
| Callsign | AEE632 |
|---|---|
| Flight time | N/A |
| Altitude | 36000 |
| Route | KOR UL53 IXONI DCT VARDI DCT DIMIS DCT VRANA DCT NIVES DCT GORPA DCT SIMBA DCT GASKA/N0444F380 DCT MAPOX DCT AMGOD L602 NALAX L46 ESHIN N110 ERKIT DCT AGPED |
| Aircraft | A320/M-SDE3FGHIRWY/LB1 |
Departure
| Time | N/A |
|---|---|
| Airport | Athens Eleftherios Venizelos International Airport (LGAV) |
Arrival
| Time | 2026-05-01 08:48 |
|---|---|
| Airport | Edinburgh Airport (EGPH) |
| Time | Latitude | Longitude | Altitude | Speed | Heading |
|---|---|---|---|---|---|
| 2026-05-01 07:23 | 50.97283 | 9.12212 | 38442 ft | 432 kts | 311° |
| 2026-05-01 07:24 | 51.03020 | 9.01264 | 38443 ft | 432 kts | 311° |
| 2026-05-01 07:24 | 51.06861 | 8.93920 | 38441 ft | 432 kts | 310° |
| 2026-05-01 07:25 | 51.10689 | 8.86555 | 38439 ft | 432 kts | 310° |
| 2026-05-01 07:25 | 51.14333 | 8.78949 | 38436 ft | 433 kts | 303° |
| 2026-05-01 07:26 | 51.17540 | 8.70823 | 38430 ft | 433 kts | 303° |
| 2026-05-01 07:26 | 51.20752 | 8.62690 | 38430 ft | 433 kts | 303° |
| 2026-05-01 07:27 | 51.23963 | 8.54541 | 38424 ft | 433 kts | 303° |
| 2026-05-01 07:27 | 51.27151 | 8.46404 | 38428 ft | 432 kts | 303° |
| 2026-05-01 07:28 | 51.30330 | 8.38258 | 38421 ft | 431 kts | 303° |
| 2026-05-01 07:28 | 51.33497 | 8.30115 | 38411 ft | 431 kts | 303° |
| 2026-05-01 07:29 | 51.36128 | 8.23341 | 38399 ft | 432 kts | 303° |
| 2026-05-01 07:29 | 51.39293 | 8.15168 | 38407 ft | 431 kts | 303° |
| 2026-05-01 07:30 | 51.42451 | 8.06997 | 38404 ft | 431 kts | 303° |
| 2026-05-01 07:30 | 51.45601 | 7.98817 | 38395 ft | 432 kts | 302° |
| 2026-05-01 07:31 | 51.48744 | 7.90611 | 38399 ft | 432 kts | 303° |
| 2026-05-01 07:32 | 51.56588 | 7.70024 | 38382 ft | 433 kts | 302° |
| 2026-05-01 07:33 | 51.61295 | 7.57603 | 38379 ft | 434 kts | 302° |
| 2026-05-01 07:33 | 51.66001 | 7.45106 | 38390 ft | 435 kts | 302° |
| 2026-05-01 07:34 | 51.70681 | 7.32623 | 38389 ft | 436 kts | 302° |
| 2026-05-01 07:35 | 51.73813 | 7.24242 | 38382 ft | 436 kts | 301° |
| 2026-05-01 07:35 | 51.76936 | 7.15837 | 38379 ft | 436 kts | 302° |
| 2026-05-01 07:36 | 51.80068 | 7.07430 | 38386 ft | 437 kts | 302° |
| 2026-05-01 07:36 | 51.83190 | 6.99004 | 38381 ft | 437 kts | 302° |
| 2026-05-01 07:37 | 51.87852 | 6.86348 | 38391 ft | 436 kts | 302° |
| 2026-05-01 07:37 | 51.90944 | 6.77892 | 38383 ft | 436 kts | 301° |
| 2026-05-01 07:38 | 51.94034 | 6.69422 | 38372 ft | 437 kts | 301° |
| 2026-05-01 07:39 | 51.98685 | 6.56691 | 38373 ft | 438 kts | 301° |
| 2026-05-01 07:39 | 52.03312 | 6.43927 | 38369 ft | 438 kts | 301° |
| 2026-05-01 07:40 | 52.06387 | 6.35386 | 38368 ft | 438 kts | 300° |
| 2026-05-01 07:40 | 52.09463 | 6.26824 | 38360 ft | 439 kts | 300° |
| 2026-05-01 07:41 | 52.12524 | 6.18289 | 38365 ft | 439 kts | 300° |
| 2026-05-01 07:42 | 52.17124 | 6.05388 | 38367 ft | 439 kts | 300° |
| 2026-05-01 07:42 | 52.20189 | 5.96762 | 38368 ft | 439 kts | 300° |
| 2026-05-01 07:43 | 52.23243 | 5.88125 | 38366 ft | 440 kts | 300° |
| 2026-05-01 07:43 | 52.27822 | 5.75147 | 38364 ft | 440 kts | 300° |
| 2026-05-01 07:44 | 52.33901 | 5.57784 | 38364 ft | 440 kts | 300° |
| 2026-05-01 07:45 | 52.36912 | 5.49132 | 38366 ft | 440 kts | 300° |
| 2026-05-01 07:45 | 52.39958 | 5.40362 | 38363 ft | 440 kts | 299° |
| 2026-05-01 07:46 | 52.42964 | 5.31686 | 38360 ft | 441 kts | 299° |
| 2026-05-01 07:47 | 52.47496 | 5.18551 | 38355 ft | 441 kts | 299° |
| 2026-05-01 07:47 | 52.50508 | 5.09773 | 38350 ft | 441 kts | 298° |
| 2026-05-01 07:48 | 52.55012 | 4.96591 | 38347 ft | 441 kts | 298° |
| 2026-05-01 07:48 | 52.58013 | 4.87777 | 38344 ft | 442 kts | 298° |
| 2026-05-01 07:49 | 52.62503 | 4.74514 | 38339 ft | 442 kts | 298° |
| 2026-05-01 07:50 | 52.65460 | 4.65731 | 38343 ft | 442 kts | 298° |
| 2026-05-01 07:50 | 52.69949 | 4.52346 | 38342 ft | 442 kts | 298° |
| 2026-05-01 07:51 | 52.72922 | 4.43458 | 38343 ft | 442 kts | 298° |
| 2026-05-01 07:52 | 52.77361 | 4.30120 | 38343 ft | 442 kts | 298° |
| 2026-05-01 07:52 | 52.80307 | 4.21196 | 38339 ft | 442 kts | 297° |
| 2026-05-01 07:53 | 52.84725 | 4.07809 | 38338 ft | 442 kts | 298° |
| 2026-05-01 07:53 | 52.87639 | 3.98921 | 38330 ft | 442 kts | 297° |
| 2026-05-01 07:55 | 52.94966 | 3.76453 | 38335 ft | 444 kts | 296° |
| 2026-05-01 07:56 | 53.02346 | 3.53905 | 38343 ft | 445 kts | 297° |
| 2026-05-01 07:57 | 53.06819 | 3.40371 | 38287 ft | 445 kts | 297° |
| 2026-05-01 07:58 | 53.11296 | 3.21399 | 38246 ft | 441 kts | 279° |
| 2026-05-01 07:59 | 53.13923 | 3.01507 | 38313 ft | 442 kts | 281° |
| 2026-05-01 08:00 | 53.17836 | 2.71509 | 38313 ft | 441 kts | 280° |
| 2026-05-01 08:01 | 53.20385 | 2.51500 | 38318 ft | 441 kts | 279° |
| 2026-05-01 08:02 | 53.22282 | 2.36474 | 38309 ft | 441 kts | 279° |
| 2026-05-01 08:03 | 53.24158 | 2.21469 | 38303 ft | 440 kts | 279° |
| 2026-05-01 08:03 | 53.26013 | 2.06463 | 38298 ft | 439 kts | 279° |
| 2026-05-01 08:04 | 53.28434 | 1.86482 | 38298 ft | 439 kts | 279° |
| 2026-05-01 08:05 | 53.30243 | 1.71493 | 38288 ft | 438 kts | 279° |
| 2026-05-01 08:06 | 53.32019 | 1.56494 | 38282 ft | 438 kts | 279° |
| 2026-05-01 08:07 | 53.34687 | 1.36626 | 38274 ft | 440 kts | 282° |
| 2026-05-01 08:08 | 53.36958 | 1.21657 | 38270 ft | 440 kts | 281° |
| 2026-05-01 08:09 | 53.39786 | 1.01706 | 38277 ft | 440 kts | 281° |
| 2026-05-01 08:09 | 53.41191 | 0.91707 | 38257 ft | 441 kts | 281° |
| 2026-05-01 08:10 | 53.44003 | 0.71646 | 38255 ft | 442 kts | 280° |
| 2026-05-01 08:11 | 53.46793 | 0.51526 | 38265 ft | 443 kts | 280° |
| 2026-05-01 08:12 | 53.48840 | 0.36393 | 38245 ft | 444 kts | 280° |
| 2026-05-01 08:13 | 53.50894 | 0.21234 | 38241 ft | 444 kts | 280° |
| 2026-05-01 08:13 | 53.52692 | 0.07758 | 38238 ft | 444 kts | 279° |
| 2026-05-01 08:14 | 53.54260 | -0.04025 | 38247 ft | 444 kts | 279° |
| 2026-05-01 08:14 | 53.55378 | -0.12528 | 38239 ft | 445 kts | 279° |
| 2026-05-01 08:15 | 53.58203 | -0.27394 | 38227 ft | 452 kts | 298° |
| 2026-05-01 08:16 | 53.62265 | -0.35469 | 38225 ft | 458 kts | 319° |
| 2026-05-01 08:16 | 53.67506 | -0.41633 | 38220 ft | 460 kts | 323° |
| 2026-05-01 08:17 | 53.72758 | -0.47681 | 38218 ft | 460 kts | 323° |
| 2026-05-01 08:17 | 53.78036 | -0.53791 | 38226 ft | 460 kts | 323° |
| 2026-05-01 08:18 | 53.83311 | -0.59932 | 38231 ft | 461 kts | 323° |
| 2026-05-01 08:19 | 53.93881 | -0.72286 | 38234 ft | 461 kts | 323° |
| 2026-05-01 08:19 | 53.99154 | -0.78479 | 38238 ft | 461 kts | 323° |
| 2026-05-01 08:20 | 54.04448 | -0.84627 | 38236 ft | 461 kts | 325° |
| 2026-05-01 08:20 | 54.09961 | -0.90259 | 38236 ft | 462 kts | 328° |
| 2026-05-01 08:21 | 54.15565 | -0.95611 | 38234 ft | 462 kts | 328° |
| 2026-05-01 08:21 | 54.21139 | -1.01041 | 38232 ft | 461 kts | 328° |
| 2026-05-01 08:22 | 54.26664 | -1.06603 | 38247 ft | 461 kts | 327° |
| 2026-05-01 08:22 | 54.32170 | -1.12210 | 38244 ft | 460 kts | 327° |
| 2026-05-01 08:23 | 54.37669 | -1.17789 | 38240 ft | 459 kts | 327° |
| 2026-05-01 08:23 | 54.43173 | -1.23371 | 38237 ft | 459 kts | 327° |
| 2026-05-01 08:24 | 54.48665 | -1.28963 | 38236 ft | 459 kts | 327° |
| 2026-05-01 08:24 | 54.54147 | -1.34551 | 38243 ft | 458 kts | 327° |
| 2026-05-01 08:25 | 54.59591 | -1.40123 | 38239 ft | 457 kts | 327° |
| 2026-05-01 08:25 | 54.65051 | -1.45738 | 38237 ft | 457 kts | 327° |
| 2026-05-01 08:26 | 54.70513 | -1.51363 | 38006 ft | 456 kts | 327° |
| 2026-05-01 08:26 | 54.73233 | -1.54170 | 37556 ft | 454 kts | 327° |
| 2026-05-01 08:26 | 54.75948 | -1.56976 | 36929 ft | 455 kts | 327° |
| 2026-05-01 08:26 | 54.78681 | -1.59805 | 36171 ft | 459 kts | 326° |
| 2026-05-01 08:27 | 54.81431 | -1.62660 | 35392 ft | 464 kts | 326° |
| 2026-05-01 08:27 | 54.84218 | -1.65564 | 34539 ft | 469 kts | 326° |
| 2026-05-01 08:27 | 54.87027 | -1.68500 | 33562 ft | 475 kts | 326° |
| 2026-05-01 08:27 | 54.89871 | -1.71474 | 32565 ft | 480 kts | 326° |
| 2026-05-01 08:28 | 54.92754 | -1.74487 | 31563 ft | 484 kts | 326° |
| 2026-05-01 08:28 | 54.95655 | -1.77525 | 30531 ft | 489 kts | 326° |
| 2026-05-01 08:28 | 54.98580 | -1.80596 | 29452 ft | 492 kts | 327° |
| 2026-05-01 08:28 | 55.01488 | -1.83644 | 28883 ft | 484 kts | 326° |
| 2026-05-01 08:29 | 55.04360 | -1.86657 | 28154 ft | 479 kts | 326° |
| 2026-05-01 08:29 | 55.07169 | -1.89611 | 27470 ft | 475 kts | 326° |
| 2026-05-01 08:29 | 55.09904 | -1.92762 | 26773 ft | 467 kts | 319° |
| 2026-05-01 08:29 | 55.12255 | -1.96584 | 26089 ft | 458 kts | 308° |
| 2026-05-01 08:30 | 55.14162 | -2.00964 | 25515 ft | 447 kts | 298° |
| 2026-05-01 08:30 | 55.15721 | -2.05610 | 24948 ft | 440 kts | 296° |
| 2026-05-01 08:30 | 55.17244 | -2.10228 | 24381 ft | 436 kts | 296° |
| 2026-05-01 08:30 | 55.18748 | -2.14797 | 23826 ft | 432 kts | 296° |
| 2026-05-01 08:31 | 55.20240 | -2.19336 | 23212 ft | 428 kts | 295° |
| 2026-05-01 08:31 | 55.21716 | -2.23837 | 22670 ft | 424 kts | 295° |
| 2026-05-01 08:31 | 55.23175 | -2.28293 | 22128 ft | 419 kts | 295° |
| 2026-05-01 08:31 | 55.24617 | -2.32710 | 21597 ft | 416 kts | 295° |
| 2026-05-01 08:32 | 55.26044 | -2.37095 | 21059 ft | 413 kts | 295° |
| 2026-05-01 08:32 | 55.27460 | -2.41445 | 20528 ft | 410 kts | 295° |
| 2026-05-01 08:32 | 55.28867 | -2.45779 | 20010 ft | 407 kts | 294° |
| 2026-05-01 08:32 | 55.30260 | -2.50079 | 19509 ft | 403 kts | 294° |
| 2026-05-01 08:33 | 55.31635 | -2.54338 | 19029 ft | 401 kts | 294° |
| 2026-05-01 08:33 | 55.33003 | -2.58583 | 18523 ft | 398 kts | 294° |
| 2026-05-01 08:33 | 55.34365 | -2.62809 | 17968 ft | 395 kts | 294° |
| 2026-05-01 08:33 | 55.35712 | -2.66987 | 17447 ft | 392 kts | 294° |
| 2026-05-01 08:34 | 55.37048 | -2.71139 | 16899 ft | 388 kts | 294° |
| 2026-05-01 08:34 | 55.38367 | -2.75256 | 16416 ft | 385 kts | 294° |
| 2026-05-01 08:34 | 55.39672 | -2.79346 | 15929 ft | 382 kts | 295° |
| 2026-05-01 08:34 | 55.40957 | -2.83387 | 15587 ft | 373 kts | 295° |
| 2026-05-01 08:35 | 55.42197 | -2.87281 | 15455 ft | 354 kts | 295° |
| 2026-05-01 08:35 | 55.43367 | -2.90927 | 15271 ft | 331 kts | 295° |
| 2026-05-01 08:35 | 55.44480 | -2.94405 | 14816 ft | 323 kts | 294° |
| 2026-05-01 08:35 | 55.45731 | -2.97677 | 14565 ft | 323 kts | 307° |
| 2026-05-01 08:36 | 55.47395 | -3.00354 | 14331 ft | 325 kts | 322° |
| 2026-05-01 08:36 | 55.49389 | -3.02253 | 14099 ft | 327 kts | 333° |
| 2026-05-01 08:36 | 55.51465 | -3.03881 | 13807 ft | 326 kts | 333° |
| 2026-05-01 08:36 | 55.53535 | -3.05516 | 13366 ft | 326 kts | 333° |
| 2026-05-01 08:37 | 55.55609 | -3.07166 | 12960 ft | 326 kts | 333° |
| 2026-05-01 08:37 | 55.57669 | -3.08810 | 12537 ft | 327 kts | 333° |
| 2026-05-01 08:37 | 55.59723 | -3.10451 | 12271 ft | 322 kts | 333° |
| 2026-05-01 08:37 | 55.61747 | -3.12066 | 11706 ft | 317 kts | 333° |
| 2026-05-01 08:38 | 55.63743 | -3.13665 | 11238 ft | 308 kts | 333° |
| 2026-05-01 08:38 | 55.65630 | -3.15171 | 11144 ft | 289 kts | 333° |
| 2026-05-01 08:38 | 55.67385 | -3.16569 | 11024 ft | 272 kts | 332° |
| 2026-05-01 08:38 | 55.69079 | -3.17922 | 10910 ft | 264 kts | 333° |
| 2026-05-01 08:39 | 55.70832 | -3.18808 | 10690 ft | 265 kts | 354° |
| 2026-05-01 08:39 | 55.72657 | -3.18436 | 10392 ft | 266 kts | 20° |
| 2026-05-01 08:39 | 55.74251 | -3.16822 | 10116 ft | 264 kts | 45° |
| 2026-05-01 08:39 | 55.75452 | -3.14387 | 9808 ft | 262 kts | 51° |
| 2026-05-01 08:40 | 55.78443 | -3.10743 | 9230 ft | 262 kts | 28° |
| 2026-05-01 08:40 | 55.80064 | -3.09268 | 8945 ft | 261 kts | 27° |
| 2026-05-01 08:40 | 55.81681 | -3.07815 | 8669 ft | 261 kts | 27° |
| 2026-05-01 08:41 | 55.83298 | -3.06368 | 8395 ft | 259 kts | 27° |
| 2026-05-01 08:41 | 55.84927 | -3.05008 | 8106 ft | 258 kts | 18° |
| 2026-05-01 08:41 | 55.86674 | -3.04295 | 7821 ft | 258 kts | 8° |
| 2026-05-01 08:41 | 55.88430 | -3.03745 | 7531 ft | 258 kts | 9° |
| 2026-05-01 08:42 | 55.90201 | -3.03183 | 7237 ft | 258 kts | 9° |
| 2026-05-01 08:42 | 55.91969 | -3.02617 | 6951 ft | 258 kts | 9° |
| 2026-05-01 08:42 | 55.93743 | -3.02050 | 6659 ft | 259 kts | 8° |
| 2026-05-01 08:42 | 55.95514 | -3.01942 | 6251 ft | 258 kts | 351° |
| 2026-05-01 08:43 | 55.97270 | -3.02351 | 5863 ft | 251 kts | 350° |
| 2026-05-01 08:43 | 55.98972 | -3.02747 | 5566 ft | 241 kts | 351° |
| 2026-05-01 08:43 | 56.00606 | -3.03124 | 5301 ft | 233 kts | 351° |
| 2026-05-01 08:43 | 56.02128 | -3.04011 | 4894 ft | 234 kts | 323° |
| 2026-05-01 08:44 | 56.03189 | -3.06215 | 4304 ft | 240 kts | 290° |
| 2026-05-01 08:44 | 56.03566 | -3.09087 | 3719 ft | 237 kts | 270° |
| 2026-05-01 08:44 | 56.03355 | -3.11980 | 3217 ft | 233 kts | 250° |
| 2026-05-01 08:44 | 56.02660 | -3.14501 | 2889 ft | 221 kts | 237° |
| 2026-05-01 08:45 | 56.01902 | -3.16758 | 2583 ft | 202 kts | 238° |
| 2026-05-01 08:45 | 56.01209 | -3.18828 | 2362 ft | 186 kts | 237° |
| 2026-05-01 08:45 | 56.00579 | -3.20706 | 2125 ft | 164 kts | 237° |
| 2026-05-01 08:45 | 56.00032 | -3.22333 | 1893 ft | 145 kts | 237° |
| 2026-05-01 08:46 | 55.99525 | -3.23839 | 1698 ft | 139 kts | 237° |
| 2026-05-01 08:46 | 55.99032 | -3.25301 | 1506 ft | 137 kts | 238° |
| 2026-05-01 08:46 | 55.98544 | -3.26748 | 1326 ft | 136 kts | 238° |
| 2026-05-01 08:46 | 55.98058 | -3.28191 | 1139 ft | 135 kts | 237° |
| 2026-05-01 08:47 | 55.97576 | -3.29619 | 958 ft | 135 kts | 238° |
| 2026-05-01 08:47 | 55.97088 | -3.31065 | 763 ft | 136 kts | 239° |
| 2026-05-01 08:47 | 55.96598 | -3.32514 | 579 ft | 136 kts | 239° |
| 2026-05-01 08:47 | 55.96109 | -3.33962 | 393 ft | 136 kts | 239° |
| 2026-05-01 08:48 | 55.95618 | -3.35412 | 209 ft | 136 kts | 239° |
| 2026-05-01 08:48 | 55.95143 | -3.36819 | 113 ft | 120 kts | 239° |
| 2026-05-01 08:48 | 55.94803 | -3.37822 | 114 ft | 70 kts | 239° |
| 2026-05-01 08:48 | 55.94634 | -3.38320 | 113 ft | 36 kts | 238° |
| 2026-05-01 08:49 | 55.94500 | -3.38715 | 112 ft | 36 kts | 239° |
| 2026-05-01 08:49 | 55.94376 | -3.38931 | 113 ft | 19 kts | 185° |
| 2026-05-01 08:49 | 55.94292 | -3.38825 | 114 ft | 16 kts | 90° |
| 2026-05-01 08:49 | 55.94330 | -3.38668 | 113 ft | 13 kts | 59° |
| 2026-05-01 08:50 | 55.94381 | -3.38515 | 114 ft | 16 kts | 58° |
| 2026-05-01 08:50 | 55.94445 | -3.38324 | 114 ft | 20 kts | 58° |
| 2026-05-01 08:50 | 55.94512 | -3.38124 | 113 ft | 19 kts | 60° |
| 2026-05-01 08:50 | 55.94586 | -3.37904 | 114 ft | 22 kts | 58° |
| 2026-05-01 08:51 | 55.94671 | -3.37652 | 115 ft | 25 kts | 59° |
| 2026-05-01 08:51 | 55.94747 | -3.37428 | 114 ft | 22 kts | 59° |
| 2026-05-01 08:51 | 55.94834 | -3.37173 | 113 ft | 24 kts | 58° |
| 2026-05-01 08:51 | 55.94913 | -3.36935 | 114 ft | 15 kts | 58° |
| 2026-05-01 08:52 | 55.94901 | -3.36779 | 115 ft | 13 kts | 94° |
| 2026-05-01 08:52 | 55.94877 | -3.36631 | 115 ft | 14 kts | 144° |
| 2026-05-01 08:52 | 55.94860 | -3.36610 | 114 ft | 0 kts | 148° |